createdAt,value
2022-10-11T00:01:46.313Z,6.74
2022-10-11T00:04:14.168Z,6.69
2022-10-11T00:06:43.496Z,6.66
2022-10-11T00:09:12.417Z,6.58
2022-10-11T00:11:41.593Z,6.46
2022-10-11T00:14:09.404Z,6.35
2022-10-11T00:16:38.545Z,6.29
2022-10-11T00:19:06.272Z,6.25
2022-10-11T00:21:34.003Z,6.23
2022-10-11T00:24:01.699Z,6.20
2022-10-11T00:26:29.860Z,6.21
2022-10-11T00:28:58.987Z,6.17
2022-10-11T00:31:26.767Z,6.08
2022-10-11T00:33:54.740Z,5.99
2022-10-11T00:36:24.949Z,5.96
2022-10-11T00:38:52.876Z,5.96
2022-10-11T00:41:20.626Z,5.96
2022-10-11T00:43:48.390Z,5.87
2022-10-11T00:46:31.007Z,5.83
2022-10-11T00:49:04.057Z,5.62
2022-10-11T00:51:40.293Z,5.54
2022-10-11T00:54:12.654Z,5.62
2022-10-11T00:56:42.354Z,5.66
2022-10-11T00:59:13.566Z,5.67
2022-10-11T01:01:42.622Z,5.70
2022-10-11T01:04:10.428Z,5.71
2022-10-11T01:06:38.222Z,5.68
2022-10-11T01:09:06.536Z,5.53
2022-10-11T01:11:37.518Z,5.41
2022-10-11T01:14:26.513Z,5.42
2022-10-11T01:17:01.122Z,5.48
2022-10-11T01:19:56.013Z,5.53
2022-10-11T01:22:50.054Z,5.57
2022-10-11T01:25:25.777Z,5.60
2022-10-11T01:28:05.843Z,5.60
2022-10-11T01:30:36.142Z,5.60
2022-10-11T01:33:18.251Z,5.55
2022-10-11T01:35:50.022Z,5.52
2022-10-11T01:38:24.242Z,5.49
2022-10-11T01:40:56.240Z,5.47
2022-10-11T01:43:26.325Z,5.47
2022-10-11T01:45:58.481Z,5.44
2022-10-11T01:48:26.414Z,5.43
2022-10-11T01:50:56.888Z,5.37
2022-10-11T01:53:35.699Z,5.33
2022-10-11T01:56:10.767Z,5.33
2022-10-11T01:58:53.442Z,5.35
2022-10-11T02:01:32.231Z,5.33
2022-10-11T02:04:06.496Z,5.35
2022-10-11T02:06:41.013Z,5.31
2022-10-11T02:09:16.485Z,5.29
2022-10-11T02:11:44.494Z,5.31
2022-10-11T02:14:14.406Z,5.33
2022-10-11T02:16:47.308Z,5.33
2022-10-11T02:19:19.608Z,5.32
2022-10-11T02:21:53.690Z,5.32
2022-10-11T02:24:27.228Z,5.32
2022-10-11T02:26:57.946Z,5.26
2022-10-11T02:29:28.887Z,5.28
2022-10-11T02:32:00.557Z,5.23
2022-10-11T02:34:32.445Z,5.26
2022-10-11T02:37:06.004Z,5.28
2022-10-11T02:39:42.061Z,5.30
2022-10-11T02:42:15.856Z,5.28
2022-10-11T02:44:48.215Z,5.28
2022-10-11T02:47:17.835Z,5.26
2022-10-11T02:49:46.216Z,5.23
2022-10-11T02:52:15.273Z,5.17
2022-10-11T02:54:43.007Z,5.10
2022-10-11T02:57:10.717Z,5.07
2022-10-11T02:59:38.480Z,5.11
2022-10-11T03:02:06.331Z,5.12
2022-10-11T03:04:35.496Z,5.11
2022-10-11T03:07:03.245Z,5.10
2022-10-11T03:09:31.011Z,5.08
2022-10-11T03:11:58.741Z,5.06
2022-10-11T03:14:26.521Z,4.99
2022-10-11T03:16:54.281Z,4.93
2022-10-11T03:19:22.015Z,4.88
2022-10-11T03:21:51.119Z,4.85
2022-10-11T03:24:18.865Z,4.86
2022-10-11T03:26:46.608Z,4.84
2022-10-11T03:29:14.516Z,4.86
2022-10-11T03:31:42.261Z,4.85
2022-10-11T03:34:10.544Z,4.84
2022-10-11T03:36:38.390Z,4.81
2022-10-11T03:39:07.745Z,4.63
2022-10-11T03:41:35.607Z,4.60
2022-10-11T03:44:03.607Z,4.59
2022-10-11T03:46:31.738Z,4.54
2022-10-11T03:48:59.473Z,4.55
2022-10-11T03:51:27.357Z,4.61
2022-10-11T03:53:55.123Z,4.58
2022-10-11T03:56:24.247Z,4.58
2022-10-11T03:58:51.988Z,4.59
2022-10-11T04:01:20.086Z,4.51
2022-10-11T04:03:47.933Z,4.45
2022-10-11T04:06:15.688Z,4.45
2022-10-11T04:08:43.457Z,4.46
2022-10-11T04:11:11.193Z,4.49
2022-10-11T04:13:40.316Z,4.47
2022-10-11T04:16:08.681Z,4.47
2022-10-11T04:18:36.575Z,4.47
2022-10-11T04:21:04.543Z,4.46
2022-10-11T04:23:33.306Z,4.43
2022-10-11T04:26:01.438Z,4.40
2022-10-11T04:28:29.448Z,4.40
2022-10-11T04:30:58.840Z,4.38
2022-10-11T04:33:26.652Z,4.40
2022-10-11T04:35:54.731Z,4.41
2022-10-11T04:38:22.718Z,4.33
2022-10-11T04:40:50.812Z,4.19
2022-10-11T04:43:18.995Z,4.19
2022-10-11T04:45:46.730Z,4.16
2022-10-11T04:48:15.833Z,4.15
2022-10-11T04:50:45.386Z,4.13
2022-10-11T04:53:17.239Z,4.14
2022-10-11T04:55:45.001Z,4.15
2022-10-11T04:58:12.688Z,4.19
2022-10-11T05:00:40.422Z,4.20
2022-10-11T05:03:08.158Z,4.24
2022-10-11T05:05:37.265Z,4.30
2022-10-11T05:08:05.210Z,4.35
2022-10-11T05:10:32.965Z,4.38
2022-10-11T05:13:00.691Z,4.40
2022-10-11T05:15:28.478Z,4.42
2022-10-11T05:17:56.225Z,4.40
2022-10-11T05:20:23.938Z,4.41
2022-10-11T05:22:53.067Z,4.45
2022-10-11T05:25:20.806Z,4.48
2022-10-11T05:27:48.715Z,4.49
2022-10-11T05:30:16.488Z,4.50
2022-10-11T05:32:44.305Z,4.49
2022-10-11T05:35:12.027Z,4.48
2022-10-11T05:37:39.780Z,4.45
2022-10-11T05:40:10.949Z,4.48
2022-10-11T05:42:38.740Z,4.49
2022-10-11T05:45:07.672Z,4.40
2022-10-11T05:47:35.481Z,4.39
2022-10-11T05:50:03.197Z,4.42
2022-10-11T05:52:31.698Z,4.40
2022-10-11T05:54:59.418Z,4.45
2022-10-11T05:57:28.560Z,4.49
2022-10-11T05:59:56.319Z,4.53
2022-10-11T06:02:24.073Z,4.57
2022-10-11T06:04:51.792Z,4.55
2022-10-11T06:07:19.542Z,4.51
2022-10-11T06:09:47.273Z,4.56
2022-10-11T06:12:15.232Z,4.68
2022-10-11T06:14:44.558Z,4.79
2022-10-11T06:17:12.289Z,4.89
2022-10-11T06:19:40.108Z,4.96
2022-10-11T06:22:07.866Z,5.02
2022-10-11T06:24:35.648Z,5.13
2022-10-11T06:27:12.984Z,5.25
2022-10-11T06:29:41.254Z,5.40
2022-10-11T06:32:10.349Z,5.51
2022-10-11T06:34:38.074Z,5.62
2022-10-11T06:37:05.881Z,5.75
2022-10-11T06:39:34.438Z,5.88
2022-10-11T06:42:02.207Z,6.03
2022-10-11T06:44:30.082Z,6.13
2022-10-11T06:46:57.826Z,6.34
2022-10-11T06:49:26.897Z,6.54
2022-10-11T06:51:54.622Z,6.65
2022-10-11T06:54:22.427Z,6.72
2022-10-11T06:56:50.185Z,6.78
2022-10-11T06:59:17.955Z,6.81
2022-10-11T07:01:45.745Z,6.83
2022-10-11T07:04:13.492Z,6.78
2022-10-11T07:06:43.066Z,6.47
2022-10-11T07:09:10.984Z,6.26
2022-10-11T07:11:38.776Z,6.34
2022-10-11T07:14:07.893Z,6.55
2022-10-11T07:16:37.253Z,6.76
2022-10-11T07:19:06.502Z,6.95
2022-10-11T07:21:36.037Z,7.25
2022-10-11T07:24:05.837Z,7.72
2022-10-11T07:26:38.819Z,8.42
2022-10-11T07:29:07.752Z,9.54
2022-10-11T07:31:37.224Z,10.11
2022-10-11T07:34:05.026Z,10.45
2022-10-11T07:36:32.813Z,11.77
2022-10-11T07:39:00.607Z,12.41
2022-10-11T07:41:29.811Z,12.51
2022-10-11T07:43:57.552Z,13.03
2022-10-11T07:46:25.466Z,13.28
2022-10-11T07:48:53.460Z,12.99
2022-10-11T07:51:22.608Z,13.01
2022-10-11T07:53:51.883Z,13.03
2022-10-11T07:56:21.468Z,12.16
2022-10-11T07:58:53.706Z,11.76
2022-10-11T08:01:22.207Z,11.40
2022-10-11T08:03:51.116Z,11.57
2022-10-11T08:06:21.190Z,12.51
2022-10-11T08:08:50.761Z,13.30
2022-10-11T08:11:22.929Z,15.19
2022-10-11T08:13:52.362Z,16.90
2022-10-11T08:16:20.376Z,17.28
2022-10-11T08:18:48.200Z,17.99
2022-10-11T08:21:18.890Z,18.95
2022-10-11T08:23:46.945Z,19.44
2022-10-11T08:26:15.228Z,19.80
2022-10-11T08:28:43.044Z,19.80
2022-10-11T08:31:15.628Z,19.51
2022-10-11T08:33:43.617Z,19.88
2022-10-11T08:36:12.241Z,19.96
2022-10-11T08:38:41.021Z,20.33
2022-10-11T08:41:26.584Z,20.63
2022-10-11T08:44:06.041Z,20.54
2022-10-11T08:46:37.981Z,19.79
2022-10-11T08:49:09.655Z,19.11
2022-10-11T08:51:43.564Z,18.72
2022-10-11T08:54:17.932Z,18.96
2022-10-11T08:56:47.024Z,19.09
2022-10-11T08:59:30.499Z,19.29
2022-10-11T09:02:10.717Z,19.11
2022-10-11T09:04:38.508Z,18.76
2022-10-11T09:07:12.833Z,19.08
2022-10-11T09:09:53.050Z,19.24
2022-10-11T09:12:38.397Z,19.23
2022-10-11T09:15:20.948Z,19.30
2022-10-11T09:18:02.451Z,19.38
2022-10-11T09:20:44.690Z,19.52
2022-10-11T09:23:24.497Z,19.69
2022-10-11T09:25:59.573Z,19.64
2022-10-11T09:28:38.244Z,20.00
2022-10-11T09:31:11.121Z,20.06
2022-10-11T09:33:45.180Z,20.27
2022-10-11T09:36:20.816Z,20.49
2022-10-11T09:38:55.462Z,20.62
2022-10-11T09:41:31.681Z,20.42
2022-10-11T09:43:59.674Z,20.72
2022-10-11T09:46:35.692Z,20.56
2022-10-11T09:49:09.817Z,20.91
2022-10-11T09:51:38.058Z,20.77
2022-10-11T09:54:07.396Z,20.75
2022-10-11T09:56:42.998Z,20.76
2022-10-11T09:59:22.020Z,20.79
2022-10-11T10:01:50.199Z,20.94
2022-10-11T10:04:19.393Z,20.89
2022-10-11T10:06:47.158Z,20.60
2022-10-11T10:09:28.433Z,20.59
2022-10-11T10:11:57.292Z,20.76
2022-10-11T10:14:28.009Z,21.01
2022-10-11T10:17:02.013Z,21.36
2022-10-11T10:19:43.893Z,21.37
2022-10-11T10:22:18.621Z,21.81
2022-10-11T10:24:48.213Z,21.93
2022-10-11T10:27:18.978Z,22.04
2022-10-11T10:30:02.776Z,21.39
2022-10-11T10:32:37.946Z,21.40
2022-10-11T10:35:17.479Z,21.68
2022-10-11T10:37:50.387Z,21.90
2022-10-11T10:40:22.627Z,22.19
2022-10-11T10:42:51.502Z,22.31
2022-10-11T10:45:21.696Z,22.68
2022-10-11T10:48:06.475Z,22.81
2022-10-11T10:50:53.694Z,23.19
2022-10-11T10:53:30.220Z,23.74
2022-10-11T10:56:05.457Z,23.89
2022-10-11T10:59:02.667Z,23.61
2022-10-11T11:01:33.659Z,23.35
2022-10-11T11:04:11.290Z,22.92
2022-10-11T11:06:46.617Z,23.22
2022-10-11T11:09:30.744Z,23.97
2022-10-11T11:12:12.667Z,23.82
2022-10-11T11:14:50.566Z,24.13
2022-10-11T11:17:30.027Z,24.32
2022-10-11T11:20:14.989Z,24.24
2022-10-11T11:22:53.362Z,24.27
2022-10-11T11:25:31.655Z,24.36
2022-10-11T11:28:14.137Z,24.08
2022-10-11T11:30:51.954Z,23.71
2022-10-11T11:33:26.115Z,23.69
2022-10-11T11:35:55.105Z,23.00
2022-10-11T11:38:30.005Z,22.21
2022-10-11T11:41:01.912Z,22.13
2022-10-11T11:43:36.253Z,21.81
2022-10-11T11:46:09.586Z,21.87
2022-10-11T11:48:38.502Z,21.61
2022-10-11T11:51:11.378Z,21.21
2022-10-11T11:53:52.906Z,20.97
2022-10-11T11:56:28.076Z,21.04
2022-10-11T11:59:05.124Z,20.64
2022-10-11T12:01:40.425Z,20.27
2022-10-11T12:04:15.049Z,20.29
2022-10-11T12:07:04.170Z,20.26
2022-10-11T12:09:33.516Z,19.95
2022-10-11T12:12:04.791Z,20.06
2022-10-11T12:14:39.005Z,20.47
2022-10-11T12:17:17.127Z,20.68
2022-10-11T12:20:02.918Z,21.04
2022-10-11T12:23:01.190Z,21.50
2022-10-11T12:25:43.049Z,21.55
2022-10-11T12:29:03.615Z,22.07
2022-10-11T12:31:34.308Z,22.06
2022-10-11T12:34:36.228Z,22.33
2022-10-11T12:37:50.000Z,22.43
2022-10-11T12:40:41.715Z,22.77
2022-10-11T12:43:31.530Z,23.38
2022-10-11T12:46:40.227Z,23.31
2022-10-11T12:49:29.044Z,23.19
2022-10-11T12:52:01.839Z,22.78
2022-10-11T12:55:01.377Z,22.86
2022-10-11T12:58:07.546Z,22.60
2022-10-11T13:00:45.569Z,22.32
2022-10-11T13:03:32.502Z,22.38
2022-10-11T13:06:02.120Z,22.71
2022-10-11T13:08:32.773Z,22.72
2022-10-11T13:11:03.823Z,23.05
2022-10-11T13:13:34.293Z,23.57
2022-10-11T13:16:10.038Z,23.50
2022-10-11T13:18:37.801Z,23.42
2022-10-11T13:21:21.470Z,23.18
2022-10-11T13:23:55.683Z,23.38
2022-10-11T13:26:23.813Z,23.49
2022-10-11T13:28:51.975Z,23.72
2022-10-11T13:31:21.127Z,23.74
2022-10-11T13:33:49.049Z,23.39
2022-10-11T13:36:19.357Z,23.27
2022-10-11T13:38:53.470Z,23.34
2022-10-11T13:41:22.196Z,23.24
2022-10-11T13:43:50.819Z,22.90
2022-10-11T13:46:24.111Z,22.79
2022-10-11T13:48:59.921Z,22.46
2022-10-11T13:51:30.107Z,22.11
2022-10-11T13:53:59.405Z,21.76
2022-10-11T13:56:28.481Z,21.69
2022-10-11T13:58:56.615Z,21.66
2022-10-11T14:01:27.916Z,21.65
2022-10-11T14:03:58.472Z,21.57
2022-10-11T14:06:39.558Z,21.16
2022-10-11T14:09:07.947Z,20.66
2022-10-11T14:11:37.494Z,20.33
2022-10-11T14:14:29.948Z,20.66
2022-10-11T14:17:06.198Z,20.40
2022-10-11T14:19:33.948Z,20.29
2022-10-11T14:22:01.747Z,20.48
2022-10-11T14:24:29.485Z,20.55
2022-10-11T14:26:58.438Z,20.83
2022-10-11T14:29:28.879Z,21.30
2022-10-11T14:32:00.081Z,21.50
2022-10-11T14:34:29.870Z,21.96
2022-10-11T14:36:57.689Z,22.24
2022-10-11T14:39:28.762Z,22.77
2022-10-11T14:41:56.572Z,23.22
2022-10-11T14:44:25.979Z,23.14
2022-10-11T14:46:55.063Z,23.20
2022-10-11T14:49:25.567Z,23.37
2022-10-11T14:51:57.079Z,23.04
2022-10-11T14:54:26.913Z,23.11
2022-10-11T14:56:57.497Z,23.31
2022-10-11T14:59:28.213Z,23.62
2022-10-11T15:01:56.019Z,23.65
2022-10-11T15:04:25.932Z,23.82
2022-10-11T15:06:56.973Z,23.78
2022-10-11T15:09:29.182Z,23.74
2022-10-11T15:11:57.581Z,23.80
2022-10-11T15:14:26.246Z,23.94
2022-10-11T15:16:56.061Z,23.87
2022-10-11T15:19:25.773Z,23.75
2022-10-11T15:21:55.239Z,23.54
2022-10-11T15:24:23.041Z,23.37
2022-10-11T15:26:50.928Z,23.16
2022-10-11T15:29:20.312Z,22.91
2022-10-11T15:31:49.233Z,22.75
2022-10-11T15:34:17.124Z,22.57
2022-10-11T15:36:44.893Z,22.43
2022-10-11T15:39:27.097Z,22.40
2022-10-11T15:41:54.845Z,22.40
2022-10-11T15:44:22.623Z,22.37
2022-10-11T15:46:50.440Z,22.34
2022-10-11T15:49:19.042Z,22.17
2022-10-11T15:51:46.964Z,22.06
2022-10-11T15:54:14.725Z,21.86
2022-10-11T15:56:44.203Z,21.04
2022-10-11T15:59:12.652Z,20.63
2022-10-11T16:01:40.782Z,20.74
2022-10-11T16:04:08.638Z,20.85
2022-10-11T16:06:36.412Z,20.59
2022-10-11T16:09:04.759Z,20.05
2022-10-11T16:11:32.484Z,19.97
2022-10-11T16:14:01.621Z,19.75
2022-10-11T16:16:29.470Z,19.52
2022-10-11T16:18:57.216Z,19.39
2022-10-11T16:21:25.015Z,19.35
2022-10-11T16:23:52.773Z,19.21
2022-10-11T16:26:20.574Z,19.19
2022-10-11T16:28:48.715Z,19.11
2022-10-11T16:31:20.883Z,18.71
2022-10-11T16:33:50.113Z,18.55
2022-10-11T16:36:39.941Z,18.20
2022-10-11T16:39:10.368Z,18.14
2022-10-11T16:41:38.710Z,18.17
2022-10-11T16:44:07.137Z,18.16
2022-10-11T16:46:36.225Z,18.12
2022-10-11T16:49:04.590Z,18.02
2022-10-11T16:51:32.450Z,17.90
2022-10-11T16:54:00.360Z,17.79
2022-10-11T16:56:28.217Z,17.71
2022-10-11T16:58:55.958Z,17.64
2022-10-11T17:01:23.961Z,17.36
2022-10-11T17:03:53.765Z,17.09
2022-10-11T17:06:23.134Z,16.94
2022-10-11T17:08:51.146Z,16.45
2022-10-11T17:11:20.141Z,16.15
2022-10-11T17:13:48.107Z,16.23
2022-10-11T17:16:16.583Z,16.33
2022-10-11T17:18:44.767Z,16.39
2022-10-11T17:21:16.117Z,16.35
2022-10-11T17:23:44.167Z,16.33
2022-10-11T17:26:16.826Z,16.27
2022-10-11T17:28:45.246Z,15.91
2022-10-11T17:31:13.046Z,15.65
2022-10-11T17:33:40.814Z,15.43
2022-10-11T17:36:23.607Z,15.12
2022-10-11T17:38:52.568Z,14.74
2022-10-11T17:41:20.860Z,14.68
2022-10-11T17:43:48.830Z,14.72
2022-10-11T17:46:18.513Z,14.43
2022-10-11T17:48:46.224Z,13.97
2022-10-11T17:51:16.175Z,13.63
2022-10-11T17:53:47.482Z,13.57
2022-10-11T17:56:17.993Z,13.76
2022-10-11T17:58:46.378Z,14.02
2022-10-11T18:01:17.089Z,14.17
2022-10-11T18:03:45.850Z,14.31
2022-10-11T18:06:14.817Z,14.22
2022-10-11T18:08:42.716Z,14.13
2022-10-11T18:11:13.630Z,14.15
2022-10-11T18:13:45.839Z,13.73
2022-10-11T18:16:14.197Z,13.44
2022-10-11T18:18:42.308Z,13.13
2022-10-11T18:21:10.609Z,12.87
2022-10-11T18:23:38.435Z,12.77
2022-10-11T18:26:12.334Z,12.87
2022-10-11T18:28:40.678Z,12.95
2022-10-11T18:31:12.927Z,12.98
2022-10-11T18:33:42.287Z,13.03
2022-10-11T18:36:13.249Z,12.86
2022-10-11T18:38:43.820Z,12.72
2022-10-11T18:41:15.820Z,12.60
2022-10-11T18:43:43.816Z,12.60
2022-10-11T18:46:16.139Z,12.66
2022-10-11T18:48:45.745Z,12.61
2022-10-11T18:51:15.815Z,12.74
2022-10-11T18:53:43.649Z,12.88
2022-10-11T18:56:15.084Z,13.00
2022-10-11T18:58:44.147Z,13.01
2022-10-11T19:01:15.852Z,12.93
2022-10-11T19:03:44.231Z,12.84
2022-10-11T19:06:17.108Z,12.68
2022-10-11T19:08:45.579Z,12.48
2022-10-11T19:11:15.610Z,12.09
2022-10-11T19:13:43.961Z,12.03
2022-10-11T19:16:13.493Z,11.96
2022-10-11T19:18:44.278Z,11.91
2022-10-11T19:21:14.480Z,11.92
2022-10-11T19:23:44.173Z,11.95
2022-10-11T19:26:16.503Z,11.94
2022-10-11T19:28:45.420Z,11.97
2022-10-11T19:31:16.822Z,11.76
2022-10-11T19:33:45.158Z,11.80
2022-10-11T19:36:14.449Z,11.74
2022-10-11T19:38:46.082Z,11.72
2022-10-11T19:41:16.912Z,11.61
2022-10-11T19:43:45.028Z,11.51
2022-10-11T19:46:20.252Z,11.62
2022-10-11T19:48:55.518Z,11.74
2022-10-11T19:51:25.771Z,11.82
2022-10-11T19:53:56.724Z,11.86
2022-10-11T19:56:27.197Z,11.67
2022-10-11T19:58:55.198Z,11.61
2022-10-11T20:01:25.416Z,11.65
2022-10-11T20:03:55.686Z,11.58
2022-10-11T20:06:25.322Z,11.62
2022-10-11T20:09:16.667Z,11.60
2022-10-11T20:11:44.470Z,11.47
2022-10-11T20:14:12.249Z,11.15
2022-10-11T20:16:41.436Z,10.93
2022-10-11T20:19:09.218Z,10.68
2022-10-11T20:21:36.951Z,10.59
2022-10-11T20:24:06.897Z,10.72
2022-10-11T20:26:34.984Z,10.86
2022-10-11T20:29:04.067Z,10.95
2022-10-11T20:31:33.855Z,10.96
2022-10-11T20:34:04.870Z,10.96
2022-10-11T20:36:34.309Z,10.99
2022-10-11T20:39:02.279Z,11.01
2022-10-11T20:41:32.288Z,11.02
2022-10-11T20:44:01.951Z,11.03
2022-10-11T20:46:32.575Z,11.01
2022-10-11T20:49:02.528Z,10.97
2022-10-11T20:51:31.121Z,10.96
2022-10-11T20:54:00.519Z,10.96
2022-10-11T20:56:29.680Z,10.93
2022-10-11T20:58:58.942Z,10.81
2022-10-11T21:01:28.929Z,10.74
2022-10-11T21:04:00.217Z,10.61
2022-10-11T21:06:28.878Z,10.35
2022-10-11T21:08:58.754Z,10.31
2022-10-11T21:11:27.031Z,10.24
2022-10-11T21:13:56.333Z,10.13
2022-10-11T21:16:24.427Z,10.24
2022-10-11T21:18:52.889Z,10.01
2022-10-11T21:21:23.466Z,9.89
2022-10-11T21:23:54.508Z,9.87
2022-10-11T21:26:22.306Z,9.89
2022-10-11T21:28:50.178Z,9.85
2022-10-11T21:31:19.729Z,9.64
2022-10-11T21:33:47.936Z,9.45
2022-10-11T21:36:17.583Z,9.38
2022-10-11T21:38:47.434Z,9.22
2022-10-11T21:41:17.869Z,9.14
2022-10-11T21:43:45.650Z,9.12
2022-10-11T21:46:16.501Z,9.18
2022-10-11T21:48:44.588Z,9.35
2022-10-11T21:53:49.228Z,9.59
2022-10-11T21:56:17.002Z,9.67
2022-10-11T21:58:47.006Z,9.74
2022-10-11T22:01:14.950Z,9.66
2022-10-11T22:03:42.714Z,9.72
2022-10-11T22:06:11.114Z,9.75
2022-10-11T22:08:39.236Z,9.81
2022-10-11T22:11:09.647Z,9.85
2022-10-11T22:13:37.921Z,9.78
2022-10-11T22:16:07.081Z,9.72
2022-10-11T22:18:34.928Z,9.57
2022-10-11T22:21:04.387Z,9.38
2022-10-11T22:23:32.140Z,9.25
2022-10-11T22:26:04.033Z,9.11
2022-10-11T22:28:33.511Z,9.12
2022-10-11T22:31:01.887Z,9.27
2022-10-11T22:33:29.672Z,9.21
2022-10-11T22:35:57.801Z,9.02
2022-10-11T22:38:26.335Z,8.86
2022-10-11T22:40:54.721Z,9.02
2022-10-11T22:43:22.486Z,9.14
2022-10-11T22:45:51.631Z,9.21
2022-10-11T22:48:19.407Z,9.05
2022-10-11T22:50:47.416Z,9.00
2022-10-11T22:53:16.220Z,9.12
2022-10-11T22:55:44.161Z,9.17
2022-10-11T22:58:11.875Z,9.13
2022-10-11T23:00:39.658Z,9.13
2022-10-11T23:03:08.750Z,9.11
2022-10-11T23:05:36.611Z,8.97
2022-10-11T23:08:04.502Z,8.92
2022-10-11T23:10:32.273Z,8.92
2022-10-11T23:12:59.954Z,8.88
2022-10-11T23:15:27.706Z,8.86
2022-10-11T23:17:55.438Z,8.90
2022-10-11T23:20:24.522Z,9.01
2022-10-11T23:22:52.260Z,9.06
2022-10-11T23:25:20.008Z,8.93
2022-10-11T23:27:47.798Z,8.65
2022-10-11T23:30:15.845Z,8.46
2022-10-11T23:32:43.682Z,8.46
2022-10-11T23:35:11.377Z,8.31
2022-10-11T23:37:40.631Z,8.18
2022-10-11T23:40:10.401Z,8.18
2022-10-11T23:42:38.245Z,8.14
2022-10-11T23:45:07.043Z,8.21
2022-10-11T23:47:35.002Z,8.33
2022-10-11T23:50:02.961Z,8.47
2022-10-11T23:52:30.730Z,8.50
2022-10-11T23:54:59.828Z,8.39
2022-10-11T23:57:27.584Z,8.34
2022-10-11T23:59:55.290Z,8.35
